Time;durP1;ratioP1;P1;durP2;ratioP2;P2;SDS_P1;SDS_P2;PMS_P1;PMS_P2;Temp;Humidity;BMP_temperature;BMP_pressure;BME280_temperature;BME280_humidity;BME280_pressure;Samples;Min_cycle;Max_cycle;Signal;HPM_P1;HPM_P2
2021/09/08 00:02:00;;;;;;;7.97;4.40;;;;;;;20.60;49.91;100355.50;6218590;23;20059;-81
2021/09/08 00:04:28;;;;;;;5.97;4.63;;;;;;;20.57;49.65;100348.63;6219244;23;20393;-80
2021/09/08 00:06:55;;;;;;;7.35;4.55;;;;;;;20.55;50.23;100356.75;6218938;23;20035;-80
2021/09/08 00:09:22;;;;;;;5.53;4.35;;;;;;;20.54;50.11;100356.91;6219305;23;20408;-80
2021/09/08 00:11:49;;;;;;;7.05;4.22;;;;;;;20.52;50.15;100341.00;6218941;23;20491;-80
2021/09/08 00:14:15;;;;;;;5.72;4.40;;;;;;;20.52;50.55;100342.84;6218525;23;20095;-81
2021/09/08 00:16:43;;;;;;;6.10;4.28;;;;;;;20.51;50.59;100341.13;6219225;23;20024;-80
2021/09/08 00:19:10;;;;;;;5.30;4.10;;;;;;;20.51;50.84;100339.31;6218717;23;20060;-80
2021/09/08 00:21:37;;;;;;;6.35;4.45;;;;;;;20.49;50.77;100335.09;6218401;23;20024;-80
2021/09/08 00:24:04;;;;;;;6.75;4.40;;;;;;;20.49;50.29;100338.63;6218704;23;20104;-80
2021/09/08 00:26:30;;;;;;;5.25;4.10;;;;;;;20.47;50.36;100335.22;6218744;23;20109;-80
2021/09/08 00:28:57;;;;;;;5.03;3.75;;;;;;;20.46;50.84;100332.69;6219207;23;20107;-80
2021/09/08 00:31:24;;;;;;;6.68;4.80;;;;;;;20.44;50.90;100331.00;6219183;23;20079;-80
2021/09/08 00:33:55;;;;;;;5.63;4.57;;;;;;;20.40;51.22;100332.25;6218618;23;20024;-80
2021/09/08 00:36:21;;;;;;;6.13;4.30;;;;;;;20.41;50.72;100330.44;6218962;23;20064;-80
2021/09/08 00:38:48;;;;;;;5.65;4.43;;;;;;;20.38;50.66;100323.53;6219052;23;20086;-80
2021/09/08 00:41:18;;;;;;;6.68;4.70;;;;;;;20.34;51.41;100330.13;6218654;23;20063;-80
2021/09/08 00:43:46;;;;;;;5.75;4.35;;;;;;;20.31;50.91;100320.53;6218492;23;20063;-80
2021/09/08 00:46:13;;;;;;;5.38;3.65;;;;;;;20.30;50.87;100329.53;6219040;23;20502;-80
2021/09/08 00:48:40;;;;;;;4.53;3.90;;;;;;;20.27;50.81;100324.50;6218656;23;20059;-80
2021/09/08 00:51:08;;;;;;;4.95;4.22;;;;;;;20.25;50.91;100329.13;6218808;23;20099;-80
2021/09/08 00:53:37;;;;;;;5.40;4.32;;;;;;;20.23;51.27;100323.06;6218510;23;20032;-80
2021/09/08 00:56:07;;;;;;;5.45;4.03;;;;;;;20.20;51.83;100326.00;6218628;23;20095;-80
2021/09/08 00:58:34;;;;;;;8.90;4.43;;;;;;;20.20;51.16;100326.00;6218932;23;20095;-80
2021/09/08 01:01:01;;;;;;;6.13;4.38;;;;;;;20.18;51.26;100325.28;6218741;23;20095;-80
2021/09/08 01:03:28;;;;;;;5.40;4.25;;;;;;;20.16;51.39;100321.91;6218763;23;20028;-80
2021/09/08 01:05:55;;;;;;;5.63;4.50;;;;;;;20.13;51.54;100327.53;6218716;23;20027;-80
2021/09/08 01:08:21;;;;;;;4.80;4.03;;;;;;;20.11;51.10;100330.34;6218986;23;20518;-80
2021/09/08 01:10:52;;;;;;;8.50;4.75;;;;;;;20.06;51.93;100329.91;6218459;23;20027;-80
2021/09/08 01:13:19;;;;;;;7.80;4.28;;;;;;;20.05;51.45;100318.38;6220400;23;20095;-80
2021/09/08 01:16:05;;;;;;;4.88;4.38;;;;;;;20.00;51.71;100327.78;6220257;23;20102;-80
2021/09/08 01:18:36;;;;;;;5.38;4.28;;;;;;;20.00;51.86;100327.78;6220350;23;20028;-80
2021/09/08 01:21:03;;;;;;;6.32;4.45;;;;;;;19.99;51.93;100326.06;6220196;23;20068;-80
2021/09/08 01:23:32;;;;;;;7.03;4.22;;;;;;;19.93;52.21;100325.59;6220674;23;20027;-80
2021/09/08 01:26:03;;;;;;;5.00;4.03;;;;;;;19.90;52.56;100330.38;6220070;23;20105;-80
2021/09/08 01:28:30;;;;;;;5.18;3.85;;;;;;;19.88;52.29;100330.50;6220826;23;20095;-80
2021/09/08 01:31:04;;;;;;;6.70;4.50;;;;;;;19.83;52.80;100323.88;6220657;23;20483;-80
2021/09/08 01:33:31;;;;;;;4.85;4.28;;;;;;;19.85;52.41;100319.25;6247047;23;20099;-80
2021/09/08 01:35:58;;;;;;;5.55;4.43;;;;;;;19.85;52.56;100324.59;6220293;23;20481;-80
2021/09/08 01:38:25;;;;;;;5.72;4.18;;;;;;;19.84;52.36;100323.75;6220112;23;20027;-80
2021/09/08 01:40:52;;;;;;;5.50;4.40;;;;;;;19.83;52.65;100323.88;6220038;23;20095;-80
2021/09/08 01:43:26;;;;;;;5.07;4.18;;;;;;;19.80;53.21;100325.00;6220050;23;20094;-80
2021/09/08 01:45:52;;;;;;;5.25;4.75;;;;;;;19.81;52.56;100324.00;6246503;23;20103;-80
2021/09/08 01:48:21;;;;;;;7.28;5.05;;;;;;;19.78;52.91;100321.63;6219946;23;20108;-80
2021/09/08 01:50:49;;;;;;;6.57;5.07;;;;;;;19.76;52.48;100320.91;6220102;23;20095;-80
2021/09/08 01:53:17;;;;;;;6.95;5.10;;;;;;;19.72;52.23;100319.47;6246459;23;20022;-80
2021/09/08 01:55:44;;;;;;;12.65;5.63;;;;;;;19.70;52.28;100316.91;6219879;23;20051;-80
2021/09/08 01:58:11;;;;;;;10.57;5.80;;;;;;;19.66;52.42;100316.34;6220249;23;20396;-80
2021/09/08 02:00:39;;;;;;;7.22;5.25;;;;;;;19.62;52.46;100306.91;6220183;23;20099;-80
2021/09/08 02:03:06;;;;;;;6.18;5.13;;;;;;;19.60;52.55;100311.56;6220366;23;20078;-80
2021/09/08 02:05:33;;;;;;;7.57;5.28;;;;;;;19.58;52.94;100310.84;6219762;23;20040;-80
2021/09/08 02:07:59;;;;;;;6.60;5.30;;;;;;;19.56;52.85;100311.94;6219860;23;20099;-80
2021/09/08 02:10:26;;;;;;;6.40;5.20;;;;;;;19.52;53.20;100301.53;6219895;23;20048;-80
2021/09/08 02:12:58;;;;;;;7.35;5.22;;;;;;;19.49;53.36;100307.16;6219727;23;20103;-80
2021/09/08 02:15:25;;;;;;;9.77;5.30;;;;;;;19.47;53.13;100302.91;6219918;23;20498;-80
2021/09/08 02:17:51;;;;;;;9.13;5.53;;;;;;;19.42;53.09;100297.09;6220309;23;20107;-80
2021/09/08 02:20:22;;;;;;;10.45;6.43;;;;;;;19.37;53.43;100298.34;6220096;23;20028;-80
2021/09/08 02:22:49;;;;;;;9.70;6.30;;;;;;;19.36;53.38;100294.00;6219077;23;20020;-80
2021/09/08 02:25:18;;;;;;;8.45;5.53;;;;;;;19.33;53.57;100290.75;6219884;23;20404;-80
2021/09/08 02:27:45;;;;;;;7.30;5.30;;;;;;;19.32;53.04;100287.22;6219982;23;20467;-80
2021/09/08 02:30:13;;;;;;;8.15;5.55;;;;;;;19.30;53.00;100289.19;6219974;23;20407;-80
2021/09/08 02:32:40;;;;;;;9.75;5.05;;;;;;;19.27;52.85;100289.44;6219754;23;20107;-80
2021/09/08 02:35:08;;;;;;;7.25;6.05;;;;;;;19.23;52.97;100293.34;6219529;23;20026;-80
2021/09/08 02:37:36;;;;;;;8.27;5.93;;;;;;;19.18;53.66;100292.91;6220187;23;20028;-80
2021/09/08 02:40:03;;;;;;;8.52;5.72;;;;;;;19.14;53.79;100293.16;6219083;23;20103;-80
2021/09/08 02:42:30;;;;;;;7.18;5.75;;;;;;;19.12;53.23;100291.59;6218664;23;20027;-80
2021/09/08 02:44:56;;;;;;;7.80;6.05;;;;;;;19.08;53.29;100291.03;6219442;23;20387;-80
2021/09/08 02:47:25;;;;;;;14.27;6.30;;;;;;;19.04;53.50;100286.03;6219743;23;20111;-80
2021/09/08 02:49:52;;;;;;;8.65;6.38;;;;;;;19.01;53.60;100284.47;6219620;23;20106;-80
2021/09/08 02:52:20;;;;;;;7.78;6.20;;;;;;;18.96;53.78;100281.34;6219535;23;20110;-80
2021/09/08 02:54:46;;;;;;;8.68;6.18;;;;;;;18.92;53.64;100280.78;6219157;23;20107;-80
2021/09/08 02:57:13;;;;;;;8.68;6.88;;;;;;;18.88;53.45;100280.16;6219872;23;20527;-80
2021/09/08 02:59:40;;;;;;;10.70;6.65;;;;;;;18.85;53.92;100284.94;6219527;23;20103;-80
2021/09/08 03:02:08;;;;;;;9.77;6.93;;;;;;;18.81;53.91;100278.16;6219243;23;20099;-80
2021/09/08 03:04:35;;;;;;;9.38;6.80;;;;;;;18.78;54.26;100271.25;6219330;23;20036;-80
2021/09/08 03:07:07;;;;;;;10.25;6.78;;;;;;;18.73;55.05;100273.47;6219725;23;20350;-80
2021/09/08 03:09:33;;;;;;;12.55;7.07;;;;;;;18.74;54.63;100270.69;6219397;23;20062;-80
2021/09/08 03:12:00;;;;;;;11.27;6.70;;;;;;;18.73;54.54;100265.47;6219337;23;20066;-80
2021/09/08 03:14:27;;;;;;;14.30;7.57;;;;;;;18.71;54.82;100270.06;6219123;23;20106;-80
2021/09/08 03:16:55;;;;;;;8.15;6.60;;;;;;;18.70;54.69;100271.03;6219378;23;20062;-80
2021/09/08 03:19:22;;;;;;;10.93;7.07;;;;;;;18.70;54.57;100263.91;6219642;23;20505;-80
2021/09/08 03:21:48;;;;;;;8.50;6.75;;;;;;;18.69;54.65;100262.19;6219029;23;20070;-80
2021/09/08 03:24:18;;;;;;;13.13;7.22;;;;;;;18.67;55.28;100266.81;6246185;23;20054;-80
2021/09/08 03:26:45;;;;;;;10.32;6.50;;;;;;;18.68;54.81;100263.19;6219167;23;20103;-80
2021/09/08 03:29:12;;;;;;;9.30;6.82;;;;;;;18.67;55.13;100257.97;6219559;23;20107;-80
2021/09/08 03:31:38;;;;;;;9.82;6.50;;;;;;;18.67;54.96;100255.28;6219100;23;20106;-80
2021/09/08 03:34:08;;;;;;;12.27;7.25;;;;;;;18.64;55.47;100253.75;6245358;23;20070;-80
2021/09/08 03:36:35;;;;;;;9.88;6.90;;;;;;;18.65;55.18;100242.09;6218936;23;20118;-80
2021/09/08 03:39:02;;;;;;;11.80;7.32;;;;;;;18.64;55.22;100245.75;6219429;23;20413;-80
2021/09/08 03:41:29;;;;;;;9.20;6.72;;;;;;;18.63;54.95;100246.72;6218782;23;20098;-80
2021/09/08 03:43:56;;;;;;;10.48;6.15;;;;;;;18.63;54.47;100241.38;6218636;23;20019;-80
2021/09/08 03:46:22;;;;;;;10.35;7.30;;;;;;;18.62;54.45;100242.38;6219047;23;20107;-80
2021/09/08 03:48:52;;;;;;;12.85;6.72;;;;;;;18.56;55.13;100249.06;6219051;23;20078;-80
2021/09/08 03:51:19;;;;;;;13.85;6.88;;;;;;;18.56;54.69;100242.84;6219381;23;20098;-80
2021/09/08 03:53:46;;;;;;;8.30;6.40;;;;;;;18.52;54.96;100247.63;6218508;23;20099;-80
2021/09/08 03:56:13;;;;;;;9.50;6.30;;;;;;;18.49;55.25;100246.06;6219041;23;20027;-80
2021/09/08 03:58:40;;;;;;;9.63;6.82;;;;;;;18.48;55.80;100248.84;6219403;23;20388;-80
2021/09/08 04:01:08;;;;;;;10.20;6.78;;;;;;;18.46;55.40;100248.97;6218845;23;20104;-80
2021/09/08 04:03:35;;;;;;;11.93;6.47;;;;;;;18.45;55.42;100241.94;6245230;23;20024;-80
2021/09/08 04:06:02;;;;;;;9.07;6.15;;;;;;;18.46;55.62;100245.44;6218667;23;20034;-80
2021/09/08 04:08:29;;;;;;;11.52;6.57;;;;;;;18.44;55.87;100234.94;6218866;23;20106;-80
2021/09/08 04:10:56;;;;;;;9.90;6.55;;;;;;;18.44;55.82;100237.59;6218738;23;20023;-80
2021/09/08 04:13:22;;;;;;;10.35;6.53;;;;;;;18.42;55.29;100236.00;6219119;23;20047;-80
2021/09/08 04:15:49;;;;;;;10.40;7.03;;;;;;;18.40;54.99;100233.50;6218959;23;20407;-80
2021/09/08 04:18:16;;;;;;;9.80;5.93;;;;;;;18.39;54.64;100241.59;6218865;23;20028;-80
2021/09/08 04:20:43;;;;;;;9.90;6.45;;;;;;;18.33;55.05;100233.16;6219124;23;20127;-80
2021/09/08 04:23:09;;;;;;;9.73;6.32;;;;;;;18.30;55.25;100232.53;6219144;23;20400;-80
2021/09/08 04:25:36;;;;;;;10.23;7.10;;;;;;;18.26;55.20;100241.75;6218538;23;20027;-80
2021/09/08 04:28:03;;;;;;;11.27;6.78;;;;;;;18.21;55.22;100234.97;6245329;23;20020;-80
2021/09/08 04:30:30;;;;;;;10.57;7.25;;;;;;;18.18;55.38;100235.25;6245624;23;20028;-80
2021/09/08 04:32:56;;;;;;;10.63;7.68;;;;;;;18.14;55.25;100228.47;6219065;23;20106;-80
2021/09/08 04:35:25;;;;;;;12.68;7.70;;;;;;;18.10;55.85;100240.34;6218977;23;20122;-80
2021/09/08 04:37:52;;;;;;;12.20;8.23;;;;;;;18.09;55.56;100234.16;6218720;23;20046;-80
2021/09/08 04:40:19;;;;;;;14.38;8.63;;;;;;;18.06;55.65;100229.06;6219017;23;20443;-80
2021/09/08 04:42:47;;;;;;;13.35;7.68;;;;;;;18.05;55.96;100239.84;6218454;23;20035;-80
2021/09/08 04:45:13;;;;;;;12.82;8.57;;;;;;;18.04;56.41;100238.16;6245518;23;20379;-80
2021/09/08 04:47:43;;;;;;;12.35;7.47;;;;;;;18.02;56.79;100216.94;6220325;23;20091;-80
2021/09/08 04:50:12;;;;;;;15.00;9.38;;;;;;;18.01;56.58;100225.91;6220848;23;20027;-82
2021/09/08 04:52:39;;;;;;;13.82;8.57;;;;;;;18.01;56.24;100233.91;6220464;23;20103;-82
2021/09/08 04:55:07;;;;;;;13.63;8.77;;;;;;;17.99;56.29;100230.53;6220388;23;20020;-81
2021/09/08 04:57:35;;;;;;;14.93;8.55;;;;;;;18.00;56.33;100231.38;6221273;23;20062;-82
2021/09/08 05:00:03;;;;;;;11.88;8.32;;;;;;;18.00;56.32;100231.38;6220466;23;20024;-81
2021/09/08 05:02:31;;;;;;;11.20;7.53;;;;;;;17.98;56.17;100235.00;6220309;23;20024;-82
2021/09/08 05:04:58;;;;;;;12.65;8.18;;;;;;;18.00;56.17;100236.69;6220734;23;20031;-82
2021/09/08 05:07:24;;;;;;;9.88;7.78;;;;;;;17.97;56.13;100237.78;6221015;23;20406;-81
2021/09/08 05:09:58;;;;;;;12.50;7.43;;;;;;;17.93;56.79;100231.03;6220447;23;20026;-82
2021/09/08 05:12:25;;;;;;;14.13;8.45;;;;;;;17.92;56.09;100232.84;6220312;23;20066;-81
2021/09/08 05:14:52;;;;;;;11.85;6.68;;;;;;;17.91;56.04;100232.97;6247305;23;20403;-81
2021/09/08 05:17:24;;;;;;;10.95;8.07;;;;;;;17.86;56.66;100229.84;6220844;23;20414;-82
2021/09/08 05:19:50;;;;;;;10.80;8.35;;;;;;;17.86;56.09;100220.00;6220493;23;20103;-82
2021/09/08 05:22:17;;;;;;;12.73;8.27;;;;;;;17.84;55.98;100222.81;6220130;23;20031;-82
2021/09/08 05:24:44;;;;;;;13.93;7.50;;;;;;;17.83;56.13;100220.28;6220099;23;20103;-81
2021/09/08 05:27:11;;;;;;;12.75;8.75;;;;;;;17.82;56.23;100208.78;6220824;23;20028;-82
2021/09/08 05:29:40;;;;;;;10.60;8.07;;;;;;;17.80;56.82;100213.38;6220193;23;20099;-82
2021/09/08 05:32:07;;;;;;;11.45;8.00;;;;;;;17.81;56.82;100217.75;6220761;23;20087;-81
2021/09/08 05:34:33;;;;;;;13.35;8.32;;;;;;;17.81;56.81;100215.09;6220287;23;20334;-82
2021/09/08 05:37:03;;;;;;;12.40;8.15;;;;;;;17.80;57.49;100215.19;6220710;23;20451;-81
2021/09/08 05:39:30;;;;;;;10.23;7.43;;;;;;;17.83;56.98;100220.28;6220188;23;20020;-82
2021/09/08 05:41:57;;;;;;;9.23;7.60;;;;;;;17.83;57.31;100210.47;6219973;23;20020;-82
2021/09/08 05:44:26;;;;;;;10.20;7.45;;;;;;;17.84;57.52;100214.81;6220278;23;20396;-82
2021/09/08 05:46:56;;;;;;;12.70;7.93;;;;;;;17.89;57.33;100216.25;6221078;23;20032;-82
2021/09/08 05:49:23;;;;;;;11.05;7.65;;;;;;;17.90;57.50;100213.47;6220290;23;20512;-82
2021/09/08 05:51:52;;;;;;;11.30;7.28;;;;;;;17.93;57.96;100223.03;6220025;23;20023;-82
2021/09/08 05:54:18;;;;;;;11.60;8.02;;;;;;;17.97;57.93;100219.16;6220254;23;20396;-82
2021/09/08 05:56:48;;;;;;;11.13;8.25;;;;;;;17.99;58.66;100214.56;6220254;23;20415;-83
2021/09/08 05:59:15;;;;;;;9.15;7.95;;;;;;;18.04;58.21;100220.34;6246505;23;20394;-82
2021/09/08 06:01:42;;;;;;;9.82;7.68;;;;;;;18.08;57.96;100216.50;6219860;23;20024;-82
2021/09/08 06:04:09;;;;;;;10.90;8.27;;;;;;;18.13;58.26;100217.94;6246252;23;20031;-82
2021/09/08 06:06:36;;;;;;;11.13;7.93;;;;;;;18.17;58.16;100216.72;6219937;23;20106;-82
2021/09/08 06:09:20;;;;;;;9.73;7.50;;;;;;;18.18;58.81;100223.75;6220342;23;20407;-82
2021/09/08 06:11:46;;;;;;;9.00;7.18;;;;;;;18.26;57.94;100215.97;6220011;23;20104;-82
2021/09/08 06:14:13;;;;;;;10.73;8.25;;;;;;;18.29;57.97;100223.72;6219629;23;20028;-82
2021/09/08 06:16:41;;;;;;;12.63;8.27;;;;;;;18.33;58.48;100222.50;6219846;23;20099;-82
2021/09/08 06:19:08;;;;;;;12.40;8.35;;;;;;;18.38;58.14;100226.59;6220373;23;20074;-82
2021/09/08 06:21:34;;;;;;;11.05;7.82;;;;;;;18.43;58.46;100219.88;6220048;23;20020;-82
2021/09/08 06:24:01;;;;;;;12.05;8.20;;;;;;;18.47;58.51;100224.00;6219447;23;20031;-82
2021/09/08 06:26:28;;;;;;;17.02;8.43;;;;;;;18.53;58.35;100225.31;6219894;23;20027;-82
2021/09/08 06:28:59;;;;;;;9.77;7.78;;;;;;;18.57;59.21;100221.41;6246271;23;20070;-82
2021/09/08 06:31:26;;;;;;;11.32;7.95;;;;;;;18.63;58.86;100220.06;6219795;23;20028;-82
2021/09/08 06:33:58;;;;;;;12.48;8.57;;;;;;;18.66;59.07;100216.28;6219422;23;20024;-82
2021/09/08 06:36:25;;;;;;;11.82;8.35;;;;;;;18.73;58.41;100217.47;6219712;23;20034;-82
2021/09/08 06:38:52;;;;;;;11.95;7.82;;;;;;;18.80;58.56;100213.28;6219505;23;20026;-82
2021/09/08 06:41:19;;;;;;;8.63;6.50;;;;;;;18.85;58.00;100213.78;6219975;23;20027;-82
2021/09/08 06:43:49;;;;;;;11.45;8.23;;;;;;;18.91;58.79;100207.03;6219302;23;20086;-82
2021/09/08 06:46:22;;;;;;;11.30;8.05;;;;;;;18.95;59.21;100199.63;6219701;23;20043;-82
2021/09/08 06:48:48;;;;;;;;;;;;;;;19.02;57.97;100209.66;6220485;23;20106;-82
2021/09/08 06:51:16;;;;;;;8.73;7.25;;;;;;;19.14;57.62;100197.09;6219496;23;19937;-82
2021/09/08 06:53:47;;;;;;;10.60;7.40;;;;;;;19.17;58.32;100201.31;6219268;23;20031;-82
2021/09/08 06:56:16;;;;;;;9.38;7.65;;;;;;;19.24;58.60;100196.28;6219318;23;20063;-82
2021/09/08 06:58:43;;;;;;;11.60;7.57;;;;;;;19.30;57.84;100187.78;6219424;23;20102;-82
2021/09/08 07:01:10;;;;;;;10.00;7.30;;;;;;;19.36;58.02;100191.72;6219484;23;20022;-82
2021/09/08 07:03:37;;;;;;;9.07;7.28;;;;;;;19.42;58.14;100190.31;6219298;23;20068;-82
2021/09/08 07:06:04;;;;;;;11.48;7.97;;;;;;;19.48;58.45;100181.78;6245756;23;20103;-83
2021/09/08 07:08:31;;;;;;;8.75;7.05;;;;;;;19.55;58.32;100188.25;6219212;23;20098;-83
2021/09/08 07:11:00;;;;;;;9.57;7.30;;;;;;;19.60;57.71;100179.84;6219406;23;20104;-83
2021/09/08 07:13:26;;;;;;;8.60;6.80;;;;;;;19.66;57.41;100180.16;6219146;23;20063;-83
2021/09/08 07:15:53;;;;;;;12.35;7.78;;;;;;;19.74;57.50;100181.31;6219545;23;20408;-83
2021/09/08 07:18:25;;;;;;;10.52;7.80;;;;;;;19.79;57.25;100176.38;6219635;23;20053;-83
2021/09/08 07:20:51;;;;;;;9.50;7.70;;;;;;;19.87;57.07;100173.03;6219670;23;20455;-83
2021/09/08 07:23:18;;;;;;;10.25;7.75;;;;;;;19.93;56.74;100167.97;6218913;23;20020;-83
2021/09/08 07:25:53;;;;;;;9.80;7.60;;;;;;;19.98;57.17;100166.72;6219496;23;20107;-83
2021/09/08 07:28:20;;;;;;;11.48;7.63;;;;;;;20.07;56.57;100168.56;6219506;23;20127;-83
2021/09/08 07:30:48;;;;;;;9.52;7.47;;;;;;;20.14;56.69;100169.72;6219048;23;20074;-83
2021/09/08 07:33:21;;;;;;;10.07;7.95;;;;;;;20.19;56.82;100171.97;6219159;23;20024;-83
2021/09/08 07:35:49;;;;;;;11.40;8.20;;;;;;;20.28;56.11;100167.59;6218826;23;20099;-83
2021/09/08 07:38:17;;;;;;;10.65;7.88;;;;;;;20.34;55.92;100158.19;6219433;23;20107;-83
2021/09/08 07:40:44;;;;;;;10.25;7.25;;;;;;;20.41;55.80;100160.13;6219492;23;20410;-83
2021/09/08 07:43:11;;;;;;;9.10;7.55;;;;;;;20.49;55.73;100161.28;6219338;23;20066;-83
2021/09/08 07:45:38;;;;;;;11.98;7.72;;;;;;;20.56;55.91;100160.53;6218994;23;20034;-82
2021/09/08 07:48:06;;;;;;;9.40;7.38;;;;;;;20.64;55.34;100167.03;6219527;23;20107;-83
2021/09/08 07:50:33;;;;;;;11.27;7.72;;;;;;;20.71;55.50;100165.47;6218912;23;20021;-83
2021/09/08 07:53:02;;;;;;;9.57;6.95;;;;;;;20.79;55.39;100167.41;6219043;23;20022;-82
2021/09/08 07:55:30;;;;;;;11.60;7.70;;;;;;;20.87;55.39;100170.25;6218494;23;20102;-82
2021/09/08 07:57:57;;;;;;;10.25;6.90;;;;;;;20.94;54.92;100163.31;6218865;23;20116;-83
2021/09/08 08:00:24;;;;;;;9.27;7.28;;;;;;;21.03;55.04;100158.94;6245553;23;20108;-83
2021/09/08 08:02:53;;;;;;;10.32;7.10;;;;;;;21.08;54.75;100161.16;6219134;23;20368;-83
2021/09/08 08:05:20;;;;;;;10.90;6.95;;;;;;;21.17;54.77;100159.44;6218749;23;20024;-82
2021/09/08 08:07:47;;;;;;;12.57;7.40;;;;;;;21.25;54.52;100164.03;6218973;23;20107;-83
2021/09/08 08:10:16;;;;;;;9.98;7.90;;;;;;;21.31;54.33;100160.78;6219290;23;20380;-83
2021/09/08 08:12:43;;;;;;;11.95;6.90;;;;;;;21.38;54.36;100161.03;6219258;23;20343;-82
2021/09/08 08:15:10;;;;;;;12.05;7.45;;;;;;;21.45;54.25;100162.97;6218731;23;20091;-82
2021/09/08 08:17:40;;;;;;;10.73;6.85;;;;;;;21.53;54.09;100161.38;6219430;23;20030;-83
2021/09/08 08:20:09;;;;;;;11.23;7.43;;;;;;;21.61;54.14;100162.31;6218823;23;20099;-83
2021/09/08 08:22:39;;;;;;;9.38;6.75;;;;;;;21.69;53.81;100158.06;6218595;23;20059;-83
2021/09/08 08:25:08;;;;;;;11.90;7.63;;;;;;;21.78;53.80;100162.53;6219037;23;20031;-83
2021/09/08 08:27:36;;;;;;;10.95;7.82;;;;;;;21.86;53.76;100145.69;6218937;23;20026;-83
2021/09/08 08:30:04;;;;;;;9.05;6.60;;;;;;;21.93;53.64;100154.81;6218700;23;20095;-83
2021/09/08 08:32:32;;;;;;;9.75;7.45;;;;;;;22.02;53.61;100146.84;6219239;23;20020;-83
2021/09/08 08:34:58;;;;;;;12.45;6.72;;;;;;;22.10;53.89;100150.44;6218957;23;20078;-83
2021/09/08 08:37:29;;;;;;;8.13;7.07;;;;;;;22.16;53.85;100154.34;6218867;23;20064;-83
2021/09/08 08:39:57;;;;;;;11.77;7.03;;;;;;;22.26;53.18;100155.13;6219445;23;20321;-82
2021/09/08 08:42:27;;;;;;;11.65;7.40;;;;;;;22.35;53.03;100160.56;6218981;23;20020;-82
2021/09/08 08:44:55;;;;;;;9.07;7.30;;;;;;;22.41;52.95;100159.94;6218967;23;20099;-82
2021/09/08 08:47:23;;;;;;;10.00;7.45;;;;;;;22.50;53.09;100150.94;6245214;23;20128;-82
2021/09/08 08:49:50;;;;;;;10.20;7.45;;;;;;;22.59;52.62;100159.09;6218689;23;20063;-82
2021/09/08 08:52:17;;;;;;;9.07;7.10;;;;;;;22.67;52.91;100151.09;6219443;23;20062;-82
2021/09/08 08:54:48;;;;;;;9.95;7.20;;;;;;;22.73;52.87;100155.81;6246320;23;20099;-82
2021/09/08 08:57:15;;;;;;;9.93;6.43;;;;;;;22.85;52.98;100159.09;6219345;23;20115;-83
2021/09/08 08:59:44;;;;;;;8.25;6.82;;;;;;;22.93;52.64;100152.94;6218673;23;20035;-82
2021/09/08 09:02:20;;;;;;;8.57;6.95;;;;;;;23.01;52.32;100152.13;6245629;23;20098;-82
2021/09/08 09:04:54;;;;;;;9.80;6.95;;;;;;;23.12;51.96;100145.66;6218727;23;20046;-82
2021/09/08 09:07:29;;;;;;;7.55;6.32;;;;;;;23.22;52.22;100145.53;6218803;23;20104;-82
2021/09/08 09:10:17;;;;;;;9.93;7.20;;;;;;;23.28;51.89;100143.03;6218952;23;20067;-80
2021/09/08 09:12:45;;;;;;;11.90;7.20;;;;;;;23.41;52.06;100136.41;6245642;23;20055;-80
2021/09/08 09:15:21;;;;;;;9.02;7.10;;;;;;;23.49;51.92;100143.66;6218421;23;20024;-80
2021/09/08 09:17:52;;;;;;;8.95;6.32;;;;;;;23.59;52.51;100139.00;6219322;23;20435;-80
2021/09/08 09:20:23;;;;;;;10.32;6.97;;;;;;;23.67;51.96;100136.28;6218393;23;20070;-80
2021/09/08 09:22:54;;;;;;;8.82;7.20;;;;;;;23.77;51.82;100138.03;6218835;23;20397;-80
2021/09/08 09:25:27;;;;;;;7.80;6.97;;;;;;;23.87;52.05;100129.78;6218681;23;20470;-80
2021/09/08 09:27:57;;;;;;;9.35;7.03;;;;;;;23.98;51.80;100132.16;6218570;23;20059;-80
2021/09/08 09:30:26;;;;;;;14.07;7.60;;;;;;;24.06;52.18;100129.47;6218759;23;20447;-80
2021/09/08 09:32:55;;;;;;;8.65;6.85;;;;;;;24.19;51.32;100136.25;6218622;23;20095;-80
2021/09/08 09:35:24;;;;;;;8.73;6.53;;;;;;;24.29;51.09;100133.41;6219955;23;20107;-80
2021/09/08 09:37:55;;;;;;;29.75;8.00;;;;;;;24.39;50.76;100127.81;6220186;23;20094;-80
2021/09/08 09:40:26;;;;;;;32.08;8.45;;;;;;;24.51;50.99;100129.16;6220081;23;20063;-80
2021/09/08 09:42:53;;;;;;;17.25;6.72;;;;;;;24.62;51.54;100129.84;6220494;23;20463;-80
2021/09/08 09:45:20;;;;;;;9.70;7.20;;;;;;;24.72;51.56;100119.72;6219914;23;20095;-80
2021/09/08 09:47:48;;;;;;;26.98;7.15;;;;;;;24.84;50.89;100117.50;6220096;23;20059;-80
2021/09/08 09:50:25;;;;;;;24.23;7.63;;;;;;;24.93;50.98;100112.97;6220023;23;20095;-80
2021/09/08 09:52:52;;;;;;;9.73;6.82;;;;;;;25.08;50.29;100115.78;6220125;23;20056;-80
2021/09/08 09:55:24;;;;;;;12.13;6.75;;;;;;;25.16;49.88;100107.66;6219750;23;20404;-80
2021/09/08 09:57:54;;;;;;;10.60;7.20;;;;;;;25.28;50.13;100110.78;6220603;23;20453;-80
2021/09/08 10:00:21;;;;;;;8.38;6.32;;;;;;;25.40;50.59;100099.59;6220507;23;20031;-80
2021/09/08 10:02:53;;;;;;;10.35;7.30;;;;;;;25.49;49.55;100106.66;6220074;23;20135;-80
2021/09/08 10:05:20;;;;;;;9.82;6.75;;;;;;;25.61;49.46;100097.16;6220116;23;20024;-79
2021/09/08 10:08:02;;;;;;;7.65;6.25;;;;;;;25.69;49.68;100098.97;6246812;23;20411;-80
2021/09/08 10:10:31;;;;;;;7.50;6.35;;;;;;;25.84;49.27;100096.34;6220498;23;20058;-80
2021/09/08 10:13:07;;;;;;;12.25;7.18;;;;;;;25.94;48.89;100092.56;6220325;23;20463;-80
2021/09/08 10:15:34;;;;;;;12.68;7.07;;;;;;;26.08;48.97;100082.81;6219761;23;20099;-80
2021/09/08 10:18:11;;;;;;;14.15;7.22;;;;;;;26.20;49.59;100085.94;6221083;23;20026;-80
2021/09/08 10:20:38;;;;;;;9.73;6.50;;;;;;;26.33;49.10;100088.88;6220500;23;20043;-80
2021/09/08 10:23:08;;;;;;;10.15;6.75;;;;;;;26.44;48.97;100075.94;6246383;23;20091;-80
2021/09/08 10:25:36;;;;;;;10.70;6.90;;;;;;;26.56;48.55;100074.47;6219619;23;20062;-80
2021/09/08 10:28:05;;;;;;;8.50;6.75;;;;;;;26.66;48.21;100066.91;6220280;23;20095;-80
2021/09/08 10:30:37;;;;;;;8.98;6.93;;;;;;;26.78;48.31;100066.47;6221369;23;20390;-80
2021/09/08 10:33:06;;;;;;;8.50;6.60;;;;;;;26.88;48.20;100072.41;6219962;23;20082;-80
2021/09/08 10:35:41;;;;;;;7.43;6.70;;;;;;;26.97;47.34;100059.69;6220093;23;20074;-80
2021/09/08 10:38:23;;;;;;;8.38;6.32;;;;;;;27.07;48.25;100062.09;6246227;23;20107;-80
2021/09/08 10:40:51;;;;;;;10.57;7.20;;;;;;;27.21;47.20;100057.66;6219743;23;20103;-80
2021/09/08 10:43:34;;;;;;;10.68;6.47;;;;;;;27.27;47.47;100059.63;6219497;23;20099;-80
2021/09/08 10:46:03;;;;;;;9.32;7.30;;;;;;;27.40;46.78;100045.41;6219451;23;20032;-80
2021/09/08 10:48:45;;;;;;;10.52;6.57;;;;;;;27.47;46.95;100053.59;6219604;23;20024;-80
2021/09/08 10:51:20;;;;;;;7.32;5.95;;;;;;;27.61;47.06;100054.59;6219961;23;20490;-80
2021/09/08 10:54:05;;;;;;;9.57;7.50;;;;;;;27.70;46.24;100052.63;6219634;23;20038;-80
2021/09/08 10:56:40;;;;;;;10.80;6.90;;;;;;;27.85;47.37;100055.25;6245740;23;20040;-80
2021/09/08 10:59:07;;;;;;;7.57;6.40;;;;;;;28.02;46.74;100055.78;6219954;23;20430;-80
2021/09/08 11:01:34;;;;;;;11.73;6.53;;;;;;;28.21;47.26;100048.88;6219339;23;20104;-80
2021/09/08 11:04:29;;;;;;;7.88;7.07;;;;;;;28.48;46.58;100046.34;6219607;23;20352;-80
2021/09/08 11:06:56;;;;;;;7.30;6.57;;;;;;;28.87;47.39;100045.94;6214381;23;20021;-80
2021/09/08 11:09:23;;;;;;;9.07;6.38;;;;;;;29.32;46.54;100044.66;6219432;23;20024;-80
2021/09/08 11:11:59;;;;;;;10.85;6.57;;;;;;;29.87;45.72;100041.00;6219304;23;20076;-80
2021/09/08 11:14:46;;;;;;;7.32;6.55;;;;;;;30.54;45.19;100043.66;6219592;23;20087;-80
2021/09/08 11:17:24;;;;;;;7.22;6.30;;;;;;;31.26;43.33;100039.22;6219401;23;20058;-80
2021/09/08 11:19:53;;;;;;;6.82;6.13;;;;;;;31.95;43.16;100035.03;6219256;23;20055;-80
2021/09/08 11:22:20;;;;;;;6.70;6.03;;;;;;;32.60;42.03;100033.75;6219210;23;20024;-81
2021/09/08 11:25:05;;;;;;;6.72;5.85;;;;;;;33.24;41.39;100038.00;6219371;23;20098;-81
2021/09/08 11:27:35;;;;;;;7.97;5.95;;;;;;;33.88;40.47;100028.44;6219629;23;20024;-80
2021/09/08 11:30:11;;;;;;;6.60;5.90;;;;;;;34.40;37.83;100023.31;6219189;23;20075;-81